Have a Safe July 4th! 

Flight Track Log - Related Links

Times and Time Zones

All times are in EDT time to prevent confusion due to time zone crossing. See the CRQ502 flight status page for this flight to view local times or setup timezone preferences in your user account.

Time Position Orientation Groundspeed Altitude Reporting Facility
EDT Latitude Longitude Course Direction KTS MPH feet Rate Location/Type
Fri 08:36:02 AM 47.1667 -72.2333 336° Northwest 210 242 16,000  Level Montreal Center
Fri 08:37:02 AM 47.2167 -72.2667 336° Northwest 220 253 16,000  Level Montreal Center
Fri 08:38:02 AM 47.2667 -72.3000 336° Northwest 220 253 16,000  Level Montreal Center
Fri 08:39:02 AM 47.3500 -72.3500 338° Northwest 220 253 16,000  Level Montreal Center
Fri 08:40:02 AM 47.4000 -72.3667 347° North 220 253 16,000  Level Montreal Center
Fri 08:41:02 AM 47.4500 -72.4167 326° Northwest 220 253 16,000  Level Montreal Center
Fri 08:42:02 AM 47.5167 -72.4333 350° North 220 253 16,000  Level Montreal Center
Fri 08:43:02 AM 47.5667 -72.4833 326° Northwest 220 253 16,000  Level Montreal Center
Fri 08:44:02 AM 47.6167 -72.5333 326° Northwest 220 253 16,000  Level Montreal Center
Fri 08:45:02 AM 47.6667 -72.5500 347° North 220 253 16,000  Level Montreal Center
Fri 08:46:02 AM 47.7333 -72.6000 333° Northwest 220 253 16,000  Level Montreal Center
Fri 08:47:02 AM 47.7833 -72.6167 347° North 230 265 16,000  Level Montreal Center
Fri 08:48:02 AM 47.8500 -72.6667 333° Northwest 220 253 16,000  Level Montreal Center
Fri 08:49:02 AM 47.9167 -72.7167 333° Northwest 220 253 16,000  Level Montreal Center
Fri 08:50:02 AM 47.9833 -72.7333 351° North 220 253 16,000  Level Montreal Center
Fri 08:51:02 AM 48.0333 -72.7833 326° Northwest 220 253 16,000  Level Montreal Center
Fri 08:52:02 AM 48.0833 -72.8000 347° North 220 253 16,000  Level Montreal Center
Fri 08:53:02 AM 48.1500 -72.8500 333° Northwest 220 253 16,000  Level Montreal Center
Fri 08:54:02 AM 48.2000 -72.8667 347° North 220 253 16,000  Level Montreal Center
Fri 08:55:02 AM 48.2500 -72.9167 326° Northwest 220 253 16,000  Level Montreal Center
Fri 08:56:02 AM 48.3167 -72.9667 333° Northwest 220 253 16,000  Level Montreal Center
Fri 08:57:02 AM 48.3667 -72.9833 348° North 220 253 16,000  Level Montreal Center
Fri 08:58:02 AM 48.4167 -73.0333 326° Northwest 220 253 16,000  Level Montreal Center
Fri 08:59:02 AM 48.4833 -73.0833 334° Northwest 220 253 16,000  Level Montreal Center
Fri 09:00:02 AM 48.5500 -73.1000 351° North 220 253 16,000  Level Montreal Center
Fri 09:01:02 AM 48.6167 -73.1500 334° Northwest 220 253 16,000  Level Montreal Center
Fri 09:02:02 AM 48.6667 -73.1667 348° North 220 253 16,000  Level Montreal Center
Fri 09:03:02 AM 48.7167 -73.2167 327° Northwest 220 253 16,000  Level Montreal Center
Fri 09:04:02 AM 48.7667 -73.2333 348° North 220 253 16,000  Level Montreal Center
Fri 09:05:02 AM 48.8333 -73.2833 334° Northwest 220 253 16,000  Level Montreal Center
Fri 09:06:02 AM 48.8833 -73.3333 327° Northwest 220 253 16,000  Level Montreal Center
Fri 09:07:02 AM 48.9333 -73.3500 348° North 220 253 16,000  Level Montreal Center
Fri 09:08:02 AM 48.9833 -73.4000 327° Northwest 220 253 16,000  Level Montreal Center
Fri 09:09:02 AM 49.0500 -73.4333 342° North 220 253 16,000  Level Montreal Center
Fri 09:10:02 AM 49.1000 -73.4667 336° Northwest 220 253 16,000  Level Montreal Center
Fri 09:11:02 AM 49.1500 -73.5000 336° Northwest 220 253 16,000  Level Montreal Center
Fri 09:12:02 AM 49.2167 -73.5500 334° Northwest 220 253 16,000  Level Montreal Center
Fri 09:13:02 AM 49.2833 -73.5667 351° North 220 253 16,000  Level Montreal Center
Fri 09:14:02 AM 49.3333 -73.6167 327° Northwest 220 253 16,000  Level Montreal Center
Fri 09:15:02 AM 49.3833 -73.6667 327° Northwest 220 253 16,000  Level Montreal Center
Fri 09:16:02 AM 49.4333 -73.6833 348° North 210 242 16,000  Level Montreal Center
Fri 09:17:02 AM 49.5000 -73.7333 334° Northwest 220 253 16,000  Level Montreal Center
Fri 09:18:02 AM 49.5500 -73.7667 337° Northwest 220 253 16,000  Level Montreal Center
Fri 09:19:02 AM 49.6000 -73.8167 327° Northwest 210 242 16,000  Level Montreal Center
Fri 09:20:02 AM 49.6500 -73.8333 348° North 210 242 16,000  Level Montreal Center
Fri 09:21:02 AM 49.7000 -73.8833 327° Northwest 210 242 16,000  Level Montreal Center
Fri 09:22:02 AM 49.7667 -73.9167 342° North 210 242 16,000  Level Montreal Center
Fri 09:23:02 AM 49.8167 -73.9500 337° Northwest 210 242 16,000  Level Montreal Center
Fri 09:24:02 AM 49.8667 -73.9833 337° Northwest 210 242 16,000 -50 Level Montreal Center
Fri 09:25:02 AM 49.9167 -74.0333 327° Northwest 210 242 15,900 -50 Descending Montreal Center
Fri 09:26:02 AM 49.9833 -74.0500 351° North 210 242 15,900  Level Montreal Center
Fri 09:27:02 AM 50.0333 -74.1000 327° Northwest 210 242 15,900  Level Montreal Center
Fri 09:28:02 AM 50.1000 -74.1333 342° North 210 242 15,900  Level Montreal Center
Fri 09:29:02 AM 50.1500 -74.1833 327° Northwest 210 242 15,900  Level Montreal Center
Fri 09:30:02 AM 50.2000 -74.2000 348° North 210 242 15,900  Level Montreal Center
Fri 09:31:02 AM 50.2500 -74.2500 327° Northwest 210 242 15,900  Level Montreal Center
Fri 09:32:02 AM 50.3000 -74.2833 337° Northwest 210 242 15,900  Level Montreal Center
Fri 09:33:02 AM 50.3500 -74.3333 327° Northwest 210 242 15,900  Level Montreal Center
Fri 09:34:02 AM 50.4167 -74.3500 351° North 210 242 15,900  Level Montreal Center
Fri 09:35:02 AM 50.4667 -74.4000 328° Northwest 210 242 15,900  Level Montreal Center
Fri 09:36:02 AM 50.5167 -74.4333 337° Northwest 210 242 15,900  Level Montreal Center
Fri 09:37:02 AM 50.5667 -74.4833 328° Northwest 210 242 15,900  Level Montreal Center
Fri 09:38:02 AM 50.6167 -74.5000 348° North 210 242 15,900  Level Montreal Center
Fri 09:39:02 AM 50.6833 -74.5500 335° Northwest 220 253 15,900  Level Montreal Center
Fri 09:40:02 AM 50.7333 -74.5833 337° Northwest 220 253 15,900  Level Montreal Center
Fri 09:41:02 AM 50.7833 -74.6333 328° Northwest 220 253 15,900  Level Montreal Center
Fri 09:42:02 AM 50.8667 -74.6667 346° North 220 253 15,900  Level Montreal Center
Fri 09:43:02 AM 50.9167 -74.6833 348° North 220 253 15,900  Level Montreal Center
Fri 09:44:02 AM 50.9833 -74.7333 335° Northwest 220 253 15,900  Level Montreal Center
Fri 09:45:02 AM 51.0333 -74.7667 337° Northwest 220 253 15,900  Level Montreal Center
Fri 09:46:02 AM 51.1000 -74.7833 351° North 220 253 15,900  Level Montreal Center
Fri 09:47:02 AM 51.1500 -74.8167 337° Northwest 220 253 15,900  Level Montreal Center
Fri 09:48:02 AM 51.2000 -74.8667 328° Northwest 220 253 15,900  Level Montreal Center
Fri 09:49:02 AM 51.2667 -74.8833 351° North 220 253 15,900  Level Montreal Center
Fri 09:50:02 AM 51.3167 -74.9167 337° Northwest 220 253 15,900  Level Montreal Center
Fri 09:51:02 AM 51.3833 -74.9667 335° Northwest 220 253 15,900  Level Montreal Center
Fri 09:52:02 AM 51.4333 -75.0000 337° Northwest 220 253 15,900  Level Montreal Center
Fri 09:53:02 AM 51.5000 -75.0167 351° North 220 253 15,900  Level Montreal Center
Fri 09:54:02 AM 51.5500 -75.0500 337° Northwest 220 253 15,900  Level Montreal Center
Fri 09:55:02 AM 51.6000 -75.1000 328° Northwest 220 253 15,900  Level Montreal Center
Fri 09:56:02 AM 51.6667 -75.1167 351° North 220 253 15,900  Level Montreal Center
Fri 09:57:02 AM 51.7167 -75.1500 338° Northwest 220 253 15,900  Level Montreal Center
Fri 09:58:02 AM 51.7833 -75.2000 335° Northwest 220 253 15,900  Level Montreal Center
Fri 09:59:02 AM 51.8333 -75.2333 338° Northwest 220 253 15,900  Level Montreal Center
Fri 10:00:02 AM 51.9000 -75.2500 351° North 220 253 15,900  Level Montreal Center
Fri 10:01:02 AM 51.9500 -75.3167 321° Northwest 220 253 15,900  Level Montreal Center
Fri 10:02:02 AM 52.0333 -75.3333 353° North 220 253 15,900  Level Montreal Center
Fri 10:03:02 AM 52.0833 -75.3667 338° Northwest 220 253 15,900  Level Montreal Center
Fri 10:04:02 AM 52.1500 -75.4167 335° Northwest 220 253 15,900  Level Montreal Center
Fri 10:05:02 AM 52.2000 -75.4500 338° Northwest 220 253 15,900  Level Montreal Center
Fri 10:06:02 AM 52.2667 -75.4667 351° North 220 253 15,900 -450 Level Montreal Center
Fri 10:07:02 AM 52.3167 -75.5167 329° Northwest 230 265 15,000 -900 Descending Montreal Center
Fri 10:10:00 AM 52.4023 -75.6333 320° Northwest  Level FlightAware Approximate
Fri 10:17:00 AM 52.7063 -76.0522 320° Northwest  Level FlightAware Approximate
Fri 10:18:00 AM 52.7167 -76.0667 324° Northwest  Level FlightAware Approximate

Login

Don't have an account? Register now (free) for customized features, flight alerts, and more!